createdAt,value
2022-10-09T00:01:01.551Z,100.00
2022-10-09T00:04:03.222Z,100.00
2022-10-09T00:07:04.693Z,100.00
2022-10-09T00:10:06.259Z,100.00
2022-10-09T00:13:07.632Z,100.00
2022-10-09T00:16:09.718Z,100.00
2022-10-09T00:19:11.167Z,100.00
2022-10-09T00:22:12.599Z,100.00
2022-10-09T00:25:14.077Z,100.00
2022-10-09T00:28:15.576Z,100.00
2022-10-09T00:31:17.231Z,100.00
2022-10-09T00:34:18.782Z,100.00
2022-10-09T00:37:20.205Z,100.00
2022-10-09T00:40:21.598Z,100.00
2022-10-09T00:43:39.656Z,100.00
2022-10-09T00:46:48.303Z,100.00
2022-10-09T00:49:49.819Z,100.00
2022-10-09T00:52:54.353Z,100.00
2022-10-09T00:55:55.861Z,100.00
2022-10-09T00:58:57.588Z,100.00
2022-10-09T01:01:59.098Z,100.00
2022-10-09T01:05:00.754Z,100.00
2022-10-09T01:08:04.994Z,100.00
2022-10-09T01:11:09.499Z,100.00
2022-10-09T01:14:11.017Z,100.00
2022-10-09T01:17:18.497Z,100.00
2022-10-09T01:20:19.912Z,100.00
2022-10-09T01:23:40.248Z,100.00
2022-10-09T01:26:47.786Z,100.00
2022-10-09T01:29:49.909Z,100.00
2022-10-09T01:32:56.083Z,100.00
2022-10-09T01:35:57.555Z,100.00
2022-10-09T01:38:59.055Z,100.00
2022-10-09T01:42:00.527Z,100.00
2022-10-09T01:45:02.000Z,100.00
2022-10-09T01:48:03.481Z,100.00
2022-10-09T01:51:04.985Z,100.00
2022-10-09T01:54:06.795Z,100.00
2022-10-09T01:57:08.373Z,100.00
2022-10-09T02:00:10.353Z,100.00
2022-10-09T02:03:12.265Z,100.00
2022-10-09T02:06:13.897Z,100.00
2022-10-09T02:09:15.715Z,100.00
2022-10-09T02:12:17.345Z,100.00
2022-10-09T02:15:18.779Z,100.00
2022-10-09T02:18:23.208Z,100.00
2022-10-09T02:21:46.318Z,100.00
2022-10-09T02:24:48.133Z,100.00
2022-10-09T02:27:49.597Z,100.00
2022-10-09T02:30:59.189Z,100.00
2022-10-09T02:34:01.940Z,100.00
2022-10-09T02:37:03.381Z,100.00
2022-10-09T02:40:10.411Z,100.00
2022-10-09T02:43:12.151Z,100.00
2022-10-09T02:46:13.667Z,100.00
2022-10-09T02:49:15.375Z,100.00
2022-10-09T02:52:16.851Z,100.00
2022-10-09T02:55:18.524Z,100.00
2022-10-09T02:58:19.937Z,100.00
2022-10-09T03:01:21.472Z,100.00
2022-10-09T03:04:22.997Z,100.00
2022-10-09T03:07:24.786Z,100.00
2022-10-09T03:10:26.256Z,100.00
2022-10-09T03:13:27.694Z,100.00
2022-10-09T03:16:29.161Z,100.00
2022-10-09T03:19:30.719Z,100.00
2022-10-09T03:22:32.205Z,100.00
2022-10-09T03:25:33.888Z,100.00
2022-10-09T03:28:38.542Z,100.00
2022-10-09T03:31:51.975Z,100.00
2022-10-09T03:34:54.229Z,100.00
2022-10-09T03:37:55.686Z,100.00
2022-10-09T03:41:00.303Z,100.00
2022-10-09T03:44:01.742Z,100.00
2022-10-09T03:47:03.325Z,100.00
2022-10-09T03:50:05.116Z,100.00
2022-10-09T03:53:06.865Z,100.00
2022-10-09T03:56:08.263Z,100.00
2022-10-09T03:59:09.855Z,100.00
2022-10-09T04:02:11.367Z,100.00
2022-10-09T04:05:12.849Z,100.00
2022-10-09T04:08:14.312Z,100.00
2022-10-09T04:11:15.807Z,100.00
2022-10-09T04:14:17.259Z,100.00
2022-10-09T04:17:18.758Z,100.00
2022-10-09T04:20:21.074Z,100.00
2022-10-09T04:23:23.069Z,100.00
2022-10-09T04:26:24.681Z,100.00
2022-10-09T04:29:28.241Z,100.00
2022-10-09T04:32:29.639Z,100.00
2022-10-09T04:35:31.027Z,100.00
2022-10-09T04:38:32.444Z,100.00
2022-10-09T04:41:38.083Z,100.00
2022-10-09T04:44:40.167Z,100.00
2022-10-09T04:47:41.665Z,100.00
2022-10-09T04:50:43.124Z,100.00
2022-10-09T04:53:44.550Z,100.00
2022-10-09T04:56:45.957Z,100.00
2022-10-09T04:59:47.583Z,100.00
2022-10-09T05:02:49.156Z,100.00
2022-10-09T05:05:50.724Z,100.00
2022-10-09T05:08:52.465Z,100.00
2022-10-09T05:11:57.093Z,100.00
2022-10-09T05:14:58.640Z,100.00
2022-10-09T05:18:00.088Z,100.00
2022-10-09T05:21:04.917Z,100.00
2022-10-09T05:24:10.240Z,100.00
2022-10-09T05:27:27.373Z,100.00
2022-10-09T05:30:29.357Z,100.00
2022-10-09T05:33:31.218Z,100.00
2022-10-09T05:36:36.431Z,100.00
2022-10-09T05:39:39.073Z,100.00
2022-10-09T05:42:40.515Z,100.00
2022-10-09T05:45:41.989Z,100.00
2022-10-09T05:48:43.901Z,100.00
2022-10-09T05:51:45.355Z,100.00
2022-10-09T05:54:46.795Z,100.00
2022-10-09T05:57:50.533Z,100.00
2022-10-09T06:00:52.024Z,100.00
2022-10-09T06:03:54.547Z,100.00
2022-10-09T06:06:55.981Z,100.00
2022-10-09T06:09:57.429Z,100.00
2022-10-09T06:12:58.867Z,100.00
2022-10-09T06:16:00.322Z,100.00
2022-10-09T06:19:01.706Z,100.00
2022-10-09T06:22:03.150Z,100.00
2022-10-09T06:25:04.718Z,100.00
2022-10-09T06:28:06.241Z,100.00
2022-10-09T06:31:08.807Z,100.00
2022-10-09T06:34:10.749Z,100.00
2022-10-09T06:37:12.189Z,100.00
2022-10-09T06:40:13.633Z,100.00
2022-10-09T06:43:15.080Z,100.00
2022-10-09T06:46:16.576Z,100.00
2022-10-09T06:49:18.075Z,100.00
2022-10-09T06:52:19.480Z,100.00
2022-10-09T06:55:23.195Z,100.00
2022-10-09T06:58:30.800Z,100.00
2022-10-09T07:01:32.533Z,100.00
2022-10-09T07:04:36.469Z,100.00
2022-10-09T07:07:41.204Z,100.00
2022-10-09T07:10:42.701Z,100.00
2022-10-09T07:13:44.156Z,100.00
2022-10-09T07:16:46.615Z,100.00
2022-10-09T07:19:48.829Z,100.00
2022-10-09T07:22:50.450Z,100.00
2022-10-09T07:25:52.251Z,100.00
2022-10-09T07:28:53.667Z,100.00
2022-10-09T07:31:55.032Z,100.00
2022-10-09T07:34:56.365Z,100.00
2022-10-09T07:37:57.682Z,100.00
2022-10-09T07:41:02.817Z,100.00
2022-10-09T07:44:04.224Z,100.00
2022-10-09T07:47:05.735Z,100.00
2022-10-09T07:50:07.338Z,100.00
2022-10-09T07:53:08.828Z,100.00
2022-10-09T07:56:20.009Z,100.00
2022-10-09T07:59:21.377Z,100.00
2022-10-09T08:02:22.847Z,100.00
2022-10-09T08:05:24.257Z,100.00
2022-10-09T08:08:25.613Z,100.00
2022-10-09T08:11:27.194Z,100.00
2022-10-09T08:14:28.579Z,100.00
2022-10-09T08:17:29.991Z,100.00
2022-10-09T08:20:31.404Z,100.00
2022-10-09T08:23:32.810Z,100.00
2022-10-09T08:26:34.291Z,100.00
2022-10-09T08:29:39.365Z,100.00
2022-10-09T08:32:41.653Z,100.00
2022-10-09T08:35:43.089Z,100.00
2022-10-09T08:38:47.495Z,100.00
2022-10-09T08:41:50.386Z,100.00
2022-10-09T08:44:51.726Z,100.00
2022-10-09T08:47:56.502Z,100.00
2022-10-09T08:50:57.829Z,100.00
2022-10-09T08:54:02.050Z,100.00
2022-10-09T08:57:04.348Z,100.00
2022-10-09T09:00:13.349Z,97.81
2022-10-09T09:03:27.455Z,99.73
2022-10-09T09:06:43.038Z,90.44
2022-10-09T09:09:53.501Z,85.64
2022-10-09T09:12:55.375Z,83.59
2022-10-09T09:16:10.616Z,88.17
2022-10-09T09:19:12.136Z,83.88
2022-10-09T09:22:13.817Z,81.96
2022-10-09T09:25:18.374Z,83.22
2022-10-09T09:28:21.273Z,77.93
2022-10-09T09:31:23.216Z,71.21
2022-10-09T09:34:26.880Z,67.82
2022-10-09T09:37:28.257Z,72.77
2022-10-09T09:40:36.770Z,71.19
2022-10-09T09:43:39.224Z,76.86
2022-10-09T09:46:40.766Z,74.88
2022-10-09T09:49:52.649Z,80.96
2022-10-09T09:52:53.986Z,75.38
2022-10-09T09:55:55.459Z,75.58
2022-10-09T09:58:56.782Z,75.16
2022-10-09T10:02:10.478Z,77.58
2022-10-09T10:05:16.597Z,75.95
2022-10-09T10:08:31.459Z,75.05
2022-10-09T10:11:33.144Z,71.60
2022-10-09T10:14:34.507Z,71.90
2022-10-09T10:17:35.826Z,71.16
2022-10-09T10:20:44.134Z,71.18
2022-10-09T10:23:46.256Z,70.59
2022-10-09T10:26:55.841Z,68.64
2022-10-09T10:30:01.244Z,67.50
2022-10-09T10:33:04.207Z,68.45
2022-10-09T10:36:05.706Z,66.14
2022-10-09T10:39:09.171Z,64.88
2022-10-09T10:42:12.389Z,68.52
2022-10-09T10:45:19.329Z,70.52
2022-10-09T10:48:20.726Z,69.04
2022-10-09T10:51:41.050Z,65.63
2022-10-09T10:54:50.987Z,64.40
2022-10-09T10:57:52.495Z,61.62
2022-10-09T11:01:03.120Z,59.71
2022-10-09T11:04:10.049Z,58.19
2022-10-09T11:07:31.460Z,55.77
2022-10-09T11:10:38.971Z,52.29
2022-10-09T11:14:00.624Z,52.61
2022-10-09T11:17:01.956Z,54.41
2022-10-09T11:20:22.170Z,54.27
2022-10-09T11:23:30.795Z,54.60
2022-10-09T11:26:36.666Z,56.15
2022-10-09T11:30:04.333Z,52.74
2022-10-09T11:33:11.414Z,53.00
2022-10-09T11:36:14.429Z,54.93
2022-10-09T11:39:18.030Z,55.46
2022-10-09T11:42:20.374Z,56.31
2022-10-09T11:45:22.500Z,54.85
2022-10-09T11:48:42.698Z,56.88
2022-10-09T11:51:47.090Z,57.04
2022-10-09T11:54:48.450Z,57.23
2022-10-09T11:57:50.028Z,59.40
2022-10-09T12:00:54.015Z,58.72
2022-10-09T12:04:02.789Z,57.74
2022-10-09T12:07:04.853Z,55.50
2022-10-09T12:10:07.437Z,56.80
2022-10-09T12:13:26.177Z,55.41
2022-10-09T12:16:34.980Z,56.19
2022-10-09T12:19:37.341Z,57.18
2022-10-09T12:22:42.853Z,57.76
2022-10-09T12:25:44.783Z,58.74
2022-10-09T12:28:50.392Z,56.62
2022-10-09T12:31:54.260Z,59.88
2022-10-09T12:34:55.718Z,62.67
2022-10-09T12:37:57.110Z,68.46
2022-10-09T12:41:02.695Z,68.37
2022-10-09T12:44:04.042Z,66.44
2022-10-09T12:47:06.155Z,66.57
2022-10-09T12:50:16.662Z,65.98
2022-10-09T12:53:19.319Z,67.55
2022-10-09T12:56:30.428Z,66.86
2022-10-09T12:59:31.796Z,66.11
2022-10-09T13:02:33.279Z,66.38
2022-10-09T13:05:43.548Z,66.86
2022-10-09T13:08:44.916Z,67.10
2022-10-09T13:11:46.298Z,64.13
2022-10-09T13:14:55.406Z,62.50
2022-10-09T13:17:56.801Z,60.29
2022-10-09T13:21:02.524Z,56.78
2022-10-09T13:24:07.710Z,55.19
2022-10-09T13:27:10.275Z,56.60
2022-10-09T13:30:11.860Z,54.08
2022-10-09T13:33:13.276Z,52.57
2022-10-09T13:36:15.136Z,54.13
2022-10-09T13:39:16.489Z,53.76
2022-10-09T13:42:17.970Z,53.39
2022-10-09T13:45:19.328Z,53.09
2022-10-09T13:48:20.740Z,53.58
2022-10-09T13:51:22.107Z,53.17
2022-10-09T13:54:23.950Z,51.20
2022-10-09T13:57:25.313Z,49.38
2022-10-09T14:00:26.649Z,52.15
2022-10-09T14:03:27.994Z,51.95
2022-10-09T14:06:29.468Z,50.62
2022-10-09T14:09:31.199Z,50.34
2022-10-09T14:12:32.519Z,51.03
2022-10-09T14:15:38.376Z,50.93
2022-10-09T14:18:39.759Z,49.79
2022-10-09T14:21:41.179Z,54.41
2022-10-09T14:24:42.559Z,54.20
2022-10-09T14:27:44.218Z,54.64
2022-10-09T14:30:45.692Z,53.29
2022-10-09T14:33:47.362Z,52.15
2022-10-09T14:36:48.901Z,54.00
2022-10-09T14:39:50.290Z,55.42
2022-10-09T14:42:51.974Z,53.02
2022-10-09T14:46:06.719Z,53.19
2022-10-09T14:49:08.189Z,54.59
2022-10-09T14:52:09.520Z,57.75
2022-10-09T14:55:10.889Z,60.44
2022-10-09T14:58:12.220Z,61.80
2022-10-09T15:01:14.082Z,65.84
2022-10-09T15:04:15.917Z,71.10
2022-10-09T15:07:17.314Z,73.08
2022-10-09T15:10:18.650Z,78.81
2022-10-09T15:13:20.048Z,78.91
2022-10-09T15:16:21.735Z,80.05
2022-10-09T15:19:23.155Z,82.40
2022-10-09T15:22:24.523Z,83.84
2022-10-09T15:25:31.119Z,84.39
2022-10-09T15:28:32.529Z,86.09
2022-10-09T15:31:34.871Z,86.44
2022-10-09T15:34:40.100Z,87.77
2022-10-09T15:40:49.466Z,91.17
2022-10-09T15:43:51.274Z,90.73
2022-10-09T15:46:52.674Z,90.54
2022-10-09T15:49:54.078Z,93.85
2022-10-09T15:52:57.018Z,96.32
2022-10-09T15:56:00.406Z,100.00
2022-10-09T15:59:01.784Z,100.00
2022-10-09T16:02:03.146Z,100.00
2022-10-09T16:05:05.236Z,100.00
2022-10-09T16:08:06.883Z,100.00
2022-10-09T16:14:10.475Z,100.00
2022-10-09T16:17:11.824Z,100.00
2022-10-09T16:20:13.206Z,100.00
2022-10-09T16:23:14.600Z,100.00
2022-10-09T16:26:17.138Z,100.00
2022-10-09T16:29:18.506Z,100.00
2022-10-09T16:32:19.820Z,100.00
2022-10-09T16:35:21.608Z,100.00
2022-10-09T16:38:22.954Z,100.00
2022-10-09T16:41:24.481Z,100.00
2022-10-09T16:44:25.820Z,100.00
2022-10-09T16:47:27.210Z,100.00
2022-10-09T16:50:28.640Z,100.00
2022-10-09T16:53:30.026Z,100.00
2022-10-09T16:56:34.961Z,100.00
2022-10-09T16:59:36.341Z,100.00
2022-10-09T17:02:37.716Z,100.00
2022-10-09T17:05:39.118Z,100.00
2022-10-09T17:08:40.475Z,100.00
2022-10-09T17:11:41.824Z,100.00
2022-10-09T17:14:43.245Z,100.00
2022-10-09T17:17:44.599Z,100.00
2022-10-09T17:20:46.287Z,100.00
2022-10-09T17:23:47.831Z,100.00
2022-10-09T17:26:49.311Z,100.00
2022-10-09T17:29:50.693Z,100.00
2022-10-09T17:32:52.494Z,100.00
2022-10-09T17:35:54.077Z,100.00
2022-10-09T17:38:55.479Z,100.00
2022-10-09T17:41:57.358Z,100.00
2022-10-09T17:44:58.738Z,100.00
2022-10-09T17:48:00.098Z,100.00
2022-10-09T17:54:09.536Z,100.00
2022-10-09T17:57:13.610Z,100.00
2022-10-09T18:00:19.677Z,100.00
2022-10-09T18:03:23.056Z,100.00
2022-10-09T18:06:24.466Z,100.00
2022-10-09T18:09:25.941Z,100.00
2022-10-09T18:12:27.416Z,100.00
2022-10-09T18:15:28.822Z,100.00
2022-10-09T18:18:30.214Z,100.00
2022-10-09T18:21:31.600Z,100.00
2022-10-09T18:24:32.985Z,100.00
2022-10-09T18:27:34.388Z,100.00
2022-10-09T18:30:40.139Z,100.00
2022-10-09T18:33:41.611Z,100.00
2022-10-09T18:36:43.026Z,100.00
2022-10-09T18:39:44.724Z,100.00
2022-10-09T18:42:46.158Z,100.00
2022-10-09T18:45:47.536Z,100.00
2022-10-09T18:48:48.942Z,100.00
2022-10-09T18:51:50.306Z,100.00
2022-10-09T18:54:53.081Z,100.00
2022-10-09T18:57:55.267Z,100.00
2022-10-09T19:00:56.671Z,100.00
2022-10-09T19:03:58.190Z,100.00
2022-10-09T19:06:59.605Z,100.00
2022-10-09T19:10:01.063Z,100.00
2022-10-09T19:13:02.447Z,100.00
2022-10-09T19:16:05.685Z,100.00
2022-10-09T19:19:07.054Z,100.00
2022-10-09T19:22:10.662Z,100.00
2022-10-09T19:25:15.496Z,100.00
2022-10-09T19:28:16.949Z,100.00
2022-10-09T19:31:18.321Z,100.00
2022-10-09T19:34:19.807Z,100.00
2022-10-09T19:37:22.822Z,100.00
2022-10-09T19:40:26.422Z,100.00
2022-10-09T19:43:28.086Z,100.00
2022-10-09T19:46:29.425Z,100.00
2022-10-09T19:49:32.117Z,100.00
2022-10-09T19:52:33.543Z,100.00
2022-10-09T19:55:35.128Z,100.00
2022-10-09T19:58:38.608Z,100.00
2022-10-09T20:01:40.445Z,100.00
2022-10-09T20:04:41.988Z,100.00
2022-10-09T20:07:43.415Z,100.00
2022-10-09T20:10:44.903Z,100.00
2022-10-09T20:13:46.655Z,100.00
2022-10-09T20:16:48.043Z,100.00
2022-10-09T20:19:49.505Z,100.00
2022-10-09T20:22:51.073Z,100.00
2022-10-09T20:26:01.631Z,100.00
2022-10-09T20:29:03.298Z,100.00
2022-10-09T20:32:04.625Z,100.00
2022-10-09T20:35:06.203Z,100.00
2022-10-09T20:38:07.560Z,100.00
2022-10-09T20:41:08.909Z,100.00
2022-10-09T20:44:10.646Z,100.00
2022-10-09T20:47:12.008Z,100.00
2022-10-09T20:50:13.433Z,100.00
2022-10-09T20:53:15.678Z,100.00
2022-10-09T20:56:17.124Z,100.00
2022-10-09T20:59:18.580Z,100.00
2022-10-09T21:02:19.981Z,100.00
2022-10-09T21:05:21.354Z,100.00
2022-10-09T21:08:22.800Z,100.00
2022-10-09T21:11:24.325Z,100.00
2022-10-09T21:14:25.740Z,100.00
2022-10-09T21:17:27.120Z,100.00
2022-10-09T21:20:28.507Z,100.00
2022-10-09T21:23:29.861Z,100.00
2022-10-09T21:26:31.375Z,100.00
2022-10-09T21:29:32.753Z,100.00
2022-10-09T21:32:34.120Z,100.00
2022-10-09T21:35:39.253Z,100.00
2022-10-09T21:38:40.862Z,100.00
2022-10-09T21:41:42.379Z,100.00
2022-10-09T21:44:43.774Z,100.00
2022-10-09T21:47:45.211Z,100.00
2022-10-09T21:50:46.637Z,100.00
2022-10-09T21:53:48.006Z,100.00
2022-10-09T21:56:49.420Z,100.00
2022-10-09T21:59:50.909Z,100.00
2022-10-09T22:02:52.557Z,100.00
2022-10-09T22:05:54.223Z,100.00
2022-10-09T22:08:55.616Z,100.00
2022-10-09T22:11:57.124Z,100.00
2022-10-09T22:14:58.681Z,100.00
2022-10-09T22:18:00.092Z,100.00
2022-10-09T22:21:05.704Z,100.00
2022-10-09T22:24:07.250Z,100.00
2022-10-09T22:27:08.621Z,100.00
2022-10-09T22:30:10.305Z,100.00
2022-10-09T22:33:11.671Z,100.00
2022-10-09T22:36:13.754Z,100.00
2022-10-09T22:39:15.130Z,100.00
2022-10-09T22:42:16.505Z,100.00
2022-10-09T22:45:17.942Z,100.00
2022-10-09T22:48:19.285Z,100.00
2022-10-09T22:51:21.053Z,100.00
2022-10-09T22:54:22.496Z,100.00
2022-10-09T22:57:23.842Z,100.00
2022-10-09T23:00:25.273Z,100.00
2022-10-09T23:03:26.685Z,100.00
2022-10-09T23:06:28.245Z,100.00
2022-10-09T23:09:30.358Z,100.00
2022-10-09T23:12:31.734Z,100.00
2022-10-09T23:15:36.722Z,100.00
2022-10-09T23:18:38.128Z,100.00
2022-10-09T23:21:39.900Z,100.00
2022-10-09T23:24:41.392Z,100.00
2022-10-09T23:27:42.836Z,100.00
2022-10-09T23:30:44.217Z,100.00
2022-10-09T23:33:45.831Z,100.00
2022-10-09T23:36:47.171Z,100.00
2022-10-09T23:39:48.572Z,100.00
2022-10-09T23:42:50.102Z,100.00
2022-10-09T23:45:51.780Z,100.00
2022-10-09T23:48:53.173Z,100.00
2022-10-09T23:51:54.602Z,100.00
2022-10-09T23:54:56.106Z,100.00
2022-10-09T23:57:57.529Z,100.00
